Time;durP1;ratioP1;P1;durP2;ratioP2;P2;SDS_P1;SDS_P2;PMS_P1;PMS_P2;Temp;Humidity;BMP_temperature;BMP_pressure;BME280_temperature;BME280_humidity;BME280_pressure;Samples;Min_cycle;Max_cycle;Signal;HPM_P1;HPM_P2
2022/10/03 00:02:34;;;;;;;19.23;18.03;;;;;;;;;;5072704;28;20484;-76
2022/10/03 00:05:09;;;;;;;18.80;17.70;;;;;;;;;;5074285;28;20426;-75
2022/10/03 00:07:49;;;;;;;18.80;17.63;;;;;;;;;;5073537;28;20403;-75
2022/10/03 00:10:21;;;;;;;17.50;16.60;;;;;;;;;;5073824;28;20434;-75
2022/10/03 00:12:54;;;;;;;19.83;18.27;;;;;;;;;;5073162;28;20461;-75
2022/10/03 00:15:25;;;;;;;20.10;18.30;;;;;;;;;;5073836;28;20441;-76
2022/10/03 00:17:57;;;;;;;18.40;17.10;;;;;;;;;;5072958;28;20554;-75
2022/10/03 00:20:37;;;;;;;18.77;17.67;;;;;;;;;;5073322;28;20411;-75
2022/10/03 00:23:09;;;;;;;19.20;17.93;;;;;;;;;;5072641;28;20427;-75
2022/10/03 00:25:41;;;;;;;18.60;17.30;;;;;;;;;;5073356;28;20408;-75
2022/10/03 00:28:13;;;;;;;20.60;19.10;;;;;;;;;;5073348;28;20465;-77
2022/10/03 00:30:48;;;;;;;19.03;18.03;;;;;;;;;;5073105;28;20834;-75
2022/10/03 00:33:20;;;;;;;20.47;19.30;;;;;;;;;;5072162;28;20508;-75
2022/10/03 00:36:00;;;;;;;20.20;18.90;;;;;;;;;;5073157;28;20437;-75
2022/10/03 00:38:44;;;;;;;21.27;19.33;;;;;;;;;;5073068;28;20674;-74
2022/10/03 00:41:30;;;;;;;21.67;19.70;;;;;;;;;;5073333;28;20805;-76
2022/10/03 00:44:18;;;;;;;20.27;18.53;;;;;;;;;;5072957;28;20479;-76
2022/10/03 00:46:54;;;;;;;18.80;17.60;;;;;;;;;;5073216;28;20557;-75
2022/10/03 00:49:53;;;;;;;18.67;17.60;;;;;;;;;;5073300;28;20462;-75
2022/10/03 00:52:30;;;;;;;19.27;18.17;;;;;;;;;;5072822;28;20474;-75
2022/10/03 00:55:03;;;;;;;20.20;18.70;;;;;;;;;;5073561;28;20451;-75
2022/10/03 00:57:51;;;;;;;20.13;18.43;;;;;;;;;;5077125;28;20817;-75
2022/10/03 01:00:20;;;;;;;19.20;18.07;;;;;;;;;;5071715;28;20455;-75
2022/10/03 01:02:50;;;;;;;19.83;18.50;;;;;;;;;;5076145;28;20435;-75
2022/10/03 01:05:24;;;;;;;19.70;18.30;;;;;;;;;;5076598;28;20455;-76
2022/10/03 01:07:58;;;;;;;19.33;18.13;;;;;;;;;;5076831;28;20432;-75
2022/10/03 01:10:31;;;;;;;20.10;18.73;;;;;;;;;;5076787;28;20414;-76
2022/10/03 01:13:07;;;;;;;19.30;18.27;;;;;;;;;;5075915;28;20980;-75
2022/10/03 01:15:42;;;;;;;19.57;18.07;;;;;;;;;;5076324;28;20467;-75
2022/10/03 01:18:15;;;;;;;18.73;17.53;;;;;;;;;;5076706;28;20432;-75
2022/10/03 01:20:50;;;;;;;19.50;18.20;;;;;;;;;;5076322;28;20418;-75
2022/10/03 01:23:38;;;;;;;20.37;18.77;;;;;;;;;;5075520;28;20490;-75
2022/10/03 01:26:11;;;;;;;19.57;18.27;;;;;;;;;;5076713;28;20436;-75
2022/10/03 01:31:38;;;;;;;19.87;18.73;;;;;;;;;;5075804;28;20463;-75
2022/10/03 01:34:08;;;;;;;20.17;19.00;;;;;;;;;;5075524;28;20534;-75
2022/10/03 01:36:40;;;;;;;21.50;19.40;;;;;;;;;;5075858;28;20822;-76
2022/10/03 01:39:12;;;;;;;19.23;18.10;;;;;;;;;;5076018;28;20412;-75
2022/10/03 01:41:45;;;;;;;20.20;18.30;;;;;;;;;;5075735;28;20436;-75
2022/10/03 01:44:22;;;;;;;18.87;17.90;;;;;;;;;;5075507;28;20491;-75
2022/10/03 01:46:52;;;;;;;20.60;19.10;;;;;;;;;;5076272;28;20481;-75
2022/10/03 01:49:22;;;;;;;18.93;17.80;;;;;;;;;;5075728;28;20481;-75
2022/10/03 01:51:56;;;;;;;20.00;18.33;;;;;;;;;;5075655;28;20458;-75
2022/10/03 01:54:30;;;;;;;20.80;19.30;;;;;;;;;;5075411;28;20566;-75
2022/10/03 01:57:00;;;;;;;19.37;18.03;;;;;;;;;;5076172;28;20452;-75
2022/10/03 01:59:34;;;;;;;19.03;17.87;;;;;;;;;;5076227;28;20425;-76
2022/10/03 02:02:07;;;;;;;20.97;19.00;;;;;;;;;;5075278;28;20904;-76
2022/10/03 02:04:40;;;;;;;19.10;17.77;;;;;;;;;;5075459;28;20977;-76
2022/10/03 02:07:12;;;;;;;19.80;18.37;;;;;;;;;;5074996;28;20432;-75
2022/10/03 02:09:42;;;;;;;20.97;19.13;;;;;;;;;;5076090;28;20454;-75
2022/10/03 02:12:12;;;;;;;25.83;19.43;;;;;;;;;;5074690;28;20948;-76
2022/10/03 02:14:50;;;;;;;23.87;21.43;;;;;;;;;;5075471;28;20449;-75
2022/10/03 02:17:29;;;;;;;20.20;18.87;;;;;;;;;;5075596;28;20802;-75
2022/10/03 02:20:00;;;;;;;20.30;18.70;;;;;;;;;;5075504;28;20905;-74
2022/10/03 02:22:34;;;;;;;21.13;19.20;;;;;;;;;;5074156;28;20501;-76
2022/10/03 02:25:09;;;;;;;22.03;18.50;;;;;;;;;;5075510;28;20798;-75
2022/10/03 02:27:51;;;;;;;19.60;18.47;;;;;;;;;;5075075;28;20420;-75
2022/10/03 02:30:22;;;;;;;19.10;18.03;;;;;;;;;;5042249;28;20478;-75
2022/10/03 02:33:09;;;;;;;20.53;19.13;;;;;;;;;;5074441;28;20451;-75
2022/10/03 02:35:50;;;;;;;22.73;20.33;;;;;;;;;;5075005;28;20437;-76
2022/10/03 02:38:24;;;;;;;21.07;19.33;;;;;;;;;;5075138;28;20441;-75
2022/10/03 02:41:05;;;;;;;20.13;18.50;;;;;;;;;;5074831;28;20912;-76
2022/10/03 02:44:05;;;;;;;19.50;18.30;;;;;;;;;;5074849;28;20610;-76
2022/10/03 02:46:48;;;;;;;20.27;18.37;;;;;;;;;;5074948;28;20431;-75
2022/10/03 02:49:38;;;;;;;21.07;19.13;;;;;;;;;;5041576;28;20997;-75
2022/10/03 02:52:11;;;;;;;21.20;19.23;;;;;;;;;;5074004;28;20460;-75
2022/10/03 02:54:53;;;;;;;19.17;17.50;;;;;;;;;;5074984;28;20425;-75
2022/10/03 02:57:39;;;;;;;20.50;19.17;;;;;;;;;;5074066;28;20522;-75
2022/10/03 03:00:08;;;;;;;21.47;18.90;;;;;;;;;;5074577;28;20489;-76
2022/10/03 03:02:53;;;;;;;20.00;18.53;;;;;;;;;;5073967;28;20562;-75
2022/10/03 03:05:26;;;;;;;22.00;20.30;;;;;;;;;;5074605;28;20863;-76
2022/10/03 03:08:06;;;;;;;19.83;18.10;;;;;;;;;;5073717;28;20466;-74
2022/10/03 03:10:47;;;;;;;21.87;20.07;;;;;;;;;;5074458;28;20476;-75
2022/10/03 03:13:34;;;;;;;26.40;20.67;;;;;;;;;;5073476;28;20835;-75
2022/10/03 03:16:20;;;;;;;21.27;19.27;;;;;;;;;;5074406;28;20451;-75
2022/10/03 03:18:53;;;;;;;23.50;19.03;;;;;;;;;;5073887;28;20767;-75
2022/10/03 03:21:27;;;;;;;21.83;19.43;;;;;;;;;;5073466;28;20465;-76
2022/10/03 03:24:16;;;;;;;20.27;18.80;;;;;;;;;;5074050;28;20439;-75
2022/10/03 03:27:10;;;;;;;22.90;19.20;;;;;;;;;;5069362;28;20973;-75
2022/10/03 03:29:43;;;;;;;22.83;17.97;;;;;;;;;;5038292;28;20493;-75
2022/10/03 03:32:17;;;;;;;38.60;22.10;;;;;;;;;;5073221;28;20456;-76
2022/10/03 03:34:48;;;;;;;31.47;19.90;;;;;;;;;;5074621;28;20436;-75
2022/10/03 03:37:21;;;;;;;24.77;19.70;;;;;;;;;;5074425;28;20498;-76
2022/10/03 03:39:57;;;;;;;22.40;20.37;;;;;;;;;;5074423;28;20443;-75
2022/10/03 03:42:35;;;;;;;30.53;21.20;;;;;;;;;;5073266;28;21030;-75
2022/10/03 03:45:09;;;;;;;24.87;20.60;;;;;;;;;;5073684;28;20468;-74
2022/10/03 03:47:56;;;;;;;23.63;20.83;;;;;;;;;;5074189;28;20482;-75
2022/10/03 03:50:30;;;;;;;25.17;20.70;;;;;;;;;;5073823;28;21015;-76
2022/10/03 03:53:27;;;;;;;27.50;20.60;;;;;;;;;;5072344;28;21042;-75
2022/10/03 03:56:07;;;;;;;28.77;21.63;;;;;;;;;;5073810;28;20453;-75
2022/10/03 03:58:37;;;;;;;22.93;20.53;;;;;;;;;;5073654;28;20449;-75
2022/10/03 04:01:11;;;;;;;32.70;24.23;;;;;;;;;;5072874;28;20556;-76
2022/10/03 04:03:47;;;;;;;27.93;21.80;;;;;;;;;;5074215;28;20524;-75
2022/10/03 04:06:23;;;;;;;25.00;22.80;;;;;;;;;;5073481;28;20400;-75
2022/10/03 04:09:04;;;;;;;23.03;20.60;;;;;;;;;;5072959;28;20476;-75
2022/10/03 04:11:38;;;;;;;30.47;21.60;;;;;;;;;;5073652;28;20408;-75
2022/10/03 04:14:35;;;;;;;34.40;22.80;;;;;;;;;;5073436;28;20494;-76
2022/10/03 04:20:09;;;;;;;24.13;21.20;;;;;;;;;;5072237;28;20887;-75
2022/10/03 04:22:46;;;;;;;25.30;21.23;;;;;;;;;;5072604;28;20488;-76
2022/10/03 04:25:30;;;;;;;23.90;21.30;;;;;;;;;;5073130;28;20429;-75
2022/10/03 04:28:06;;;;;;;24.27;21.23;;;;;;;;;;5073301;28;20441;-75
2022/10/03 04:30:40;;;;;;;26.20;20.67;;;;;;;;;;5076880;28;20490;-76
2022/10/03 04:33:11;;;;;;;36.37;21.40;;;;;;;;;;5077294;28;20476;-75
2022/10/03 04:35:50;;;;;;;23.67;21.27;;;;;;;;;;5077692;28;20445;-75
2022/10/03 04:38:21;;;;;;;29.27;20.80;;;;;;;;;;5077386;28;20411;-75
2022/10/03 04:40:55;;;;;;;26.70;20.47;;;;;;;;;;5076386;28;20479;-75
2022/10/03 04:43:30;;;;;;;29.83;22.50;;;;;;;;;;5076921;28;20436;-75
2022/10/03 04:46:05;;;;;;;38.97;22.43;;;;;;;;;;5077143;28;20433;-75
2022/10/03 04:48:38;;;;;;;37.00;21.53;;;;;;;;;;5076934;28;20460;-75
2022/10/03 04:51:09;;;;;;;25.10;21.80;;;;;;;;;;5076472;28;20465;-75
2022/10/03 04:53:42;;;;;;;22.13;20.37;;;;;;;;;;5077124;28;20479;-75
2022/10/03 04:56:23;;;;;;;27.60;22.10;;;;;;;;;;5077159;28;20444;-75
2022/10/03 04:58:56;;;;;;;27.87;23.30;;;;;;;;;;5076769;28;20457;-75
2022/10/03 05:01:26;;;;;;;35.63;22.97;;;;;;;;;;5076138;28;20457;-75
2022/10/03 05:04:01;;;;;;;26.80;21.97;;;;;;;;;;5075942;28;20477;-75
2022/10/03 05:06:36;;;;;;;26.03;22.33;;;;;;;;;;5076613;28;20425;-75
2022/10/03 05:09:12;;;;;;;34.40;24.40;;;;;;;;;;5076234;28;20465;-75
2022/10/03 05:11:46;;;;;;;35.13;21.93;;;;;;;;;;5075716;28;20469;-74
2022/10/03 05:14:21;;;;;;;27.67;22.43;;;;;;;;;;5076783;28;20857;-75
2022/10/03 05:16:53;;;;;;;24.97;22.20;;;;;;;;;;5076987;28;20502;-75
2022/10/03 05:19:35;;;;;;;22.33;20.60;;;;;;;;;;5076496;28;20430;-75
2022/10/03 05:22:04;;;;;;;33.63;23.10;;;;;;;;;;5073669;28;20468;-74
2022/10/03 05:24:36;;;;;;;29.90;22.63;;;;;;;;;;5076278;28;20494;-75
2022/10/03 05:27:11;;;;;;;29.63;22.57;;;;;;;;;;5076480;28;20437;-75
2022/10/03 05:29:42;;;;;;;27.27;24.10;;;;;;;;;;5076252;28;20481;-76
2022/10/03 05:32:16;;;;;;;38.70;24.87;;;;;;;;;;5075506;28;20437;-76
2022/10/03 05:34:51;;;;;;;25.40;23.00;;;;;;;;;;5076515;28;20463;-75
2022/10/03 05:37:27;;;;;;;27.57;24.70;;;;;;;;;;5076196;28;20422;-75
2022/10/03 05:39:57;;;;;;;36.20;24.40;;;;;;;;;;5075734;28;20450;-75
2022/10/03 05:42:35;;;;;;;34.83;23.00;;;;;;;;;;5074582;28;20526;-75
2022/10/03 05:45:05;;;;;;;28.23;23.67;;;;;;;;;;5076077;28;20469;-75
2022/10/03 05:47:47;;;;;;;32.03;25.80;;;;;;;;;;5076041;28;20460;-75
2022/10/03 05:50:35;;;;;;;37.23;25.43;;;;;;;;;;5075347;28;20503;-76
2022/10/03 05:53:13;;;;;;;24.77;22.33;;;;;;;;;;5075524;28;20479;-75
2022/10/03 05:55:46;;;;;;;29.93;25.47;;;;;;;;;;5075685;28;20810;-75
2022/10/03 05:58:28;;;;;;;27.93;25.30;;;;;;;;;;5076268;28;20452;-76
2022/10/03 06:01:15;;;;;;;29.03;25.23;;;;;;;;;;5074479;28;20481;-76
2022/10/03 06:03:57;;;;;;;27.23;24.60;;;;;;;;;;5075464;28;20469;-76
2022/10/03 06:06:28;;;;;;;28.87;24.17;;;;;;;;;;5075891;28;20781;-75
2022/10/03 06:09:14;;;;;;;26.40;23.90;;;;;;;;;;5075497;28;20433;-75
2022/10/03 06:11:49;;;;;;;28.10;25.33;;;;;;;;;;5074582;28;20471;-75
2022/10/03 06:14:32;;;;;;;29.77;24.17;;;;;;;;;;5075679;28;21131;-76
2022/10/03 06:17:07;;;;;;;25.93;23.53;;;;;;;;;;5073845;28;20445;-75
2022/10/03 06:19:42;;;;;;;26.77;23.93;;;;;;;;;;5075284;28;20410;-75
2022/10/03 06:22:27;;;;;;;34.20;25.20;;;;;;;;;;5073851;28;20479;-77
2022/10/03 06:25:12;;;;;;;26.87;24.30;;;;;;;;;;5075429;28;20437;-75
2022/10/03 06:27:51;;;;;;;32.93;23.77;;;;;;;;;;5075442;28;20453;-75
2022/10/03 06:30:23;;;;;;;27.93;25.10;;;;;;;;;;5074504;28;20469;-76
2022/10/03 06:33:04;;;;;;;24.33;21.97;;;;;;;;;;5073694;28;20965;-75
2022/10/03 06:35:52;;;;;;;40.13;26.50;;;;;;;;;;5074994;28;20465;-75
2022/10/03 06:38:35;;;;;;;37.80;25.07;;;;;;;;;;5049696;28;20455;-76
2022/10/03 06:41:16;;;;;;;31.67;24.67;;;;;;;;;;5074077;28;20489;-76
2022/10/03 06:44:01;;;;;;;29.80;24.37;;;;;;;;;;5074055;28;20478;-75
2022/10/03 06:46:40;;;;;;;42.27;25.50;;;;;;;;;;5073545;28;20780;-75
2022/10/03 06:49:29;;;;;;;37.67;24.50;;;;;;;;;;5074184;28;20415;-77
2022/10/03 06:52:08;;;;;;;26.07;23.33;;;;;;;;;;5074191;28;20434;-75
2022/10/03 06:54:54;;;;;;;28.80;25.70;;;;;;;;;;5073681;28;20461;-74
2022/10/03 06:57:43;;;;;;;25.30;23.13;;;;;;;;;;5074736;28;20453;-75
2022/10/03 07:00:15;;;;;;;25.47;22.50;;;;;;;;;;5074662;28;20452;-75
2022/10/03 07:03:05;;;;;;;25.37;22.90;;;;;;;;;;5073801;28;20466;-75
2022/10/03 07:05:54;;;;;;;29.33;22.70;;;;;;;;;;5074373;28;20445;-75
2022/10/03 07:08:40;;;;;;;25.03;22.83;;;;;;;;;;5075145;28;20446;-75
2022/10/03 07:11:28;;;;;;;25.10;22.80;;;;;;;;;;5073407;28;21012;-74
2022/10/03 07:14:15;;;;;;;25.03;22.60;;;;;;;;;;5074602;28;20468;-75
2022/10/03 07:17:03;;;;;;;25.53;23.10;;;;;;;;;;5074486;28;20517;-75
2022/10/03 07:19:47;;;;;;;23.97;22.43;;;;;;;;;;5069309;28;20848;-75
2022/10/03 07:22:45;;;;;;;23.87;21.73;;;;;;;;;;5063253;28;20470;-75
2022/10/03 07:25:31;;;;;;;25.53;23.00;;;;;;;;;;5074193;28;20444;-75
2022/10/03 07:28:06;;;;;;;24.43;21.73;;;;;;;;;;5073845;28;20456;-75
2022/10/03 07:30:48;;;;;;;23.57;21.80;;;;;;;;;;5074208;28;20447;-75
2022/10/03 07:33:27;;;;;;;23.17;21.40;;;;;;;;;;5073180;28;20900;-74
2022/10/03 07:39:12;;;;;;;23.47;21.23;;;;;;;;;;5073903;28;20504;-75
2022/10/03 07:41:46;;;;;;;23.60;21.80;;;;;;;;;;5073485;28;20451;-75
2022/10/03 07:44:31;;;;;;;25.60;22.20;;;;;;;;;;5074392;28;20454;-75
2022/10/03 07:47:12;;;;;;;23.63;21.67;;;;;;;;;;5063975;28;20461;-75
2022/10/03 07:49:55;;;;;;;24.23;22.83;;;;;;;;;;5073077;28;20465;-75
2022/10/03 07:52:52;;;;;;;24.60;22.77;;;;;;;;;;5071127;28;20481;-75
2022/10/03 07:55:28;;;;;;;24.57;22.20;;;;;;;;;;5073993;28;20453;-75
2022/10/03 07:58:25;;;;;;;26.33;23.63;;;;;;;;;;5073680;28;20918;-74
2022/10/03 08:01:13;;;;;;;22.53;20.70;;;;;;;;;;5038767;28;20454;-75
2022/10/03 08:03:57;;;;;;;23.20;21.00;;;;;;;;;;5047377;28;20494;-75
2022/10/03 08:06:30;;;;;;;24.93;23.10;;;;;;;;;;5042897;28;20452;-75
2022/10/03 08:09:15;;;;;;;23.50;21.57;;;;;;;;;;5073419;28;20448;-75
2022/10/03 08:11:53;;;;;;;23.60;21.60;;;;;;;;;;5063075;28;20473;-75
2022/10/03 08:14:29;;;;;;;23.50;21.70;;;;;;;;;;5072907;28;20471;-76
2022/10/03 08:17:15;;;;;;;23.27;21.77;;;;;;;;;;5073871;28;20448;-75
2022/10/03 08:20:00;;;;;;;23.30;21.07;;;;;;;;;;5073369;28;20437;-74
2022/10/03 08:22:38;;;;;;;24.37;22.20;;;;;;;;;;5074133;28;20466;-75
2022/10/03 08:25:21;;;;;;;21.87;20.20;;;;;;;;;;5073072;28;20469;-74
2022/10/03 08:27:55;;;;;;;22.57;20.40;;;;;;;;;;5073450;28;20495;-74
2022/10/03 08:30:24;;;;;;;23.00;20.83;;;;;;;;;;5073821;28;20469;-75
2022/10/03 08:32:58;;;;;;;24.07;21.83;;;;;;;;;;5072611;28;20987;-74
2022/10/03 08:35:38;;;;;;;20.93;19.47;;;;;;;;;;5072813;28;20476;-80
2022/10/03 08:38:24;;;;;;;21.80;19.90;;;;;;;;;;5079230;28;20450;-79
2022/10/03 08:41:06;;;;;;;25.00;22.60;;;;;;;;;;5073293;28;20433;-81
2022/10/03 08:43:55;;;;;;;23.23;21.20;;;;;;;;;;5073339;28;21071;-74
2022/10/03 08:46:36;;;;;;;23.03;21.07;;;;;;;;;;5073020;28;20503;-74
2022/10/03 08:49:11;;;;;;;21.97;20.20;;;;;;;;;;5073192;28;20442;-74
2022/10/03 08:51:57;;;;;;;21.97;20.33;;;;;;;;;;5073291;28;20477;-79
2022/10/03 08:54:41;;;;;;;21.07;19.40;;;;;;;;;;5073664;28;20767;-74
2022/10/03 08:57:22;;;;;;;22.40;20.57;;;;;;;;;;5073232;28;20422;-74
2022/10/03 09:00:11;;;;;;;19.90;18.40;;;;;;;;;;5073459;28;20793;-74
2022/10/03 09:03:04;;;;;;;20.73;19.20;;;;;;;;;;5071920;28;20482;-74
2022/10/03 09:05:42;;;;;;;21.17;19.47;;;;;;;;;;5072904;28;20846;-74
2022/10/03 09:08:39;;;;;;;21.60;20.07;;;;;;;;;;5073167;28;20587;-74
2022/10/03 09:11:34;;;;;;;22.80;21.10;;;;;;;;;;5030831;28;21061;-74
2022/10/03 09:14:35;;;;;;;23.97;21.43;;;;;;;;;;5070946;28;20452;-75
2022/10/03 09:17:09;;;;;;;21.37;19.97;;;;;;;;;;5076194;28;20562;-74
2022/10/03 09:20:07;;;;;;;19.53;18.33;;;;;;;;;;5076579;28;20448;-74
2022/10/03 09:22:48;;;;;;;21.00;18.83;;;;;;;;;;5075559;28;21016;-75
2022/10/03 09:25:22;;;;;;;19.40;18.20;;;;;;;;;;5076504;28;20400;-75
2022/10/03 09:28:13;;;;;;;21.27;19.87;;;;;;;;;;5076755;28;20426;-75
2022/10/03 09:30:44;;;;;;;24.20;21.60;;;;;;;;;;5075716;28;20465;-75
2022/10/03 09:33:44;;;;;;;25.40;22.53;;;;;;;;;;5075776;28;20488;-75
2022/10/03 09:36:18;;;;;;;22.83;20.80;;;;;;;;;;5076391;28;20437;-74
2022/10/03 09:39:00;;;;;;;23.17;20.67;;;;;;;;;;5076457;28;20441;-75
2022/10/03 09:41:51;;;;;;;22.07;20.07;;;;;;;;;;5074975;28;20443;-77
2022/10/03 09:44:49;;;;;;;25.17;20.67;;;;;;;;;;5083587;28;20435;-73
2022/10/03 09:47:32;;;;;;;22.57;20.40;;;;;;;;;;5034083;28;20447;-75
2022/10/03 09:50:18;;;;;;;21.27;19.63;;;;;;;;;;5088788;28;20472;-74
2022/10/03 09:53:01;;;;;;;19.83;18.43;;;;;;;;;;5093407;28;20553;-74
2022/10/03 09:55:47;;;;;;;21.73;20.10;;;;;;;;;;5095441;28;20424;-74
2022/10/03 09:58:25;;;;;;;20.37;18.73;;;;;;;;;;5095024;28;20423;-74
2022/10/03 10:01:03;;;;;;;19.47;17.97;;;;;;;;;;5095718;28;20427;-75
2022/10/03 10:03:49;;;;;;;20.47;18.70;;;;;;;;;;5095605;28;20480;-74
2022/10/03 10:06:28;;;;;;;19.80;18.23;;;;;;;;;;5096216;28;20452;-74
2022/10/03 10:09:15;;;;;;;21.43;19.83;;;;;;;;;;5095968;28;20435;-73
2022/10/03 10:12:01;;;;;;;20.50;18.80;;;;;;;;;;5095117;28;20462;-74
2022/10/03 10:14:41;;;;;;;19.97;18.47;;;;;;;;;;5095098;28;20801;-74
2022/10/03 10:17:25;;;;;;;20.50;18.80;;;;;;;;;;5095735;28;20448;-74
2022/10/03 10:20:00;;;;;;;20.37;18.97;;;;;;;;;;5095298;28;20508;-74
2022/10/03 10:22:54;;;;;;;20.70;19.07;;;;;;;;;;5094850;28;20887;-74
2022/10/03 10:25:30;;;;;;;19.73;18.43;;;;;;;;;;5095442;28;20922;-74
2022/10/03 10:28:15;;;;;;;22.37;20.30;;;;;;;;;;5096104;28;20428;-74
2022/10/03 10:30:59;;;;;;;20.30;18.97;;;;;;;;;;5095581;28;20425;-74
2022/10/03 10:33:50;;;;;;;20.93;19.20;;;;;;;;;;5075208;28;20424;-74
2022/10/03 10:36:38;;;;;;;18.63;17.47;;;;;;;;;;5018897;28;20473;-75
2022/10/03 10:39:21;;;;;;;19.40;17.93;;;;;;;;;;5070309;28;20431;-74
2022/10/03 10:42:07;;;;;;;19.47;17.67;;;;;;;;;;5073762;28;20984;-74
2022/10/03 10:44:49;;;;;;;19.10;17.73;;;;;;;;;;5074952;28;20457;-74
2022/10/03 10:47:34;;;;;;;20.10;18.60;;;;;;;;;;5075146;28;20416;-74
2022/10/03 10:50:19;;;;;;;19.60;17.90;;;;;;;;;;5075277;28;20446;-74
2022/10/03 10:53:14;;;;;;;21.30;19.10;;;;;;;;;;5082131;28;20875;-74
2022/10/03 10:56:15;;;;;;;22.57;20.30;;;;;;;;;;5074772;28;20923;-74
2022/10/03 10:59:01;;;;;;;19.53;17.90;;;;;;;;;;5085848;28;20471;-74
2022/10/03 11:01:40;;;;;;;17.77;16.47;;;;;;;;;;5079325;28;20440;-74
2022/10/03 11:04:19;;;;;;;18.77;17.57;;;;;;;;;;5082760;28;20453;-74
2022/10/03 11:07:04;;;;;;;20.43;17.50;;;;;;;;;;5080071;28;20492;-74
2022/10/03 11:09:50;;;;;;;18.73;17.30;;;;;;;;;;5077132;28;20418;-74
2022/10/03 11:12:51;;;;;;;17.77;16.57;;;;;;;;;;5076272;28;20512;-74
2022/10/03 11:15:42;;;;;;;17.43;16.03;;;;;;;;;;5077068;28;20434;-74
2022/10/03 11:18:30;;;;;;;17.20;15.70;;;;;;;;;;5088214;28;20484;-74
2022/10/03 11:21:24;;;;;;;24.10;18.13;;;;;;;;;;5075721;28;20449;-77
2022/10/03 11:24:09;;;;;;;17.63;15.87;;;;;;;;;;5074389;28;20462;-74
2022/10/03 11:27:00;;;;;;;17.37;15.90;;;;;;;;;;5043506;28;20843;-74
2022/10/03 11:29:43;;;;;;;16.40;15.00;;;;;;;;;;5074427;28;20489;-74
2022/10/03 11:32:23;;;;;;;18.77;16.80;;;;;;;;;;5039599;28;20504;-75
2022/10/03 11:35:05;;;;;;;19.37;16.37;;;;;;;;;;5074281;28;20437;-74
2022/10/03 11:37:36;;;;;;;16.17;15.00;;;;;;;;;;5061297;28;20914;-74
2022/10/03 11:40:13;;;;;;;16.20;14.90;;;;;;;;;;5073485;28;20450;-74
2022/10/03 11:42:49;;;;;;;16.47;15.33;;;;;;;;;;5072615;28;20991;-75
2022/10/03 11:45:22;;;;;;;16.00;15.00;;;;;;;;;;5074062;28;20849;-76
2022/10/03 11:47:55;;;;;;;19.27;15.87;;;;;;;;;;5074158;28;20884;-75
2022/10/03 11:50:30;;;;;;;17.07;15.63;;;;;;;;;;5073993;28;20874;-74
2022/10/03 11:53:05;;;;;;;17.43;16.33;;;;;;;;;;5072741;28;20853;-75
2022/10/03 11:55:34;;;;;;;17.43;16.30;;;;;;;;;;5073576;28;20527;-75
2022/10/03 11:58:12;;;;;;;18.33;16.63;;;;;;;;;;5073844;28;20424;-74
2022/10/03 12:00:41;;;;;;;19.47;17.53;;;;;;;;;;5073574;28;20939;-75
2022/10/03 12:03:19;;;;;;;19.23;17.80;;;;;;;;;;5072759;28;20937;-75
2022/10/03 12:08:53;;;;;;;17.37;16.37;;;;;;;;;;5074185;28;20442;-75
2022/10/03 12:08:55;;;;;;;19.70;18.30;;;;;;;;;;5071238;28;20471;-75
2022/10/03 12:11:27;;;;;;;18.90;17.80;;;;;;;;;;5073099;28;20490;-75
2022/10/03 12:14:11;;;;;;;18.27;17.13;;;;;;;;;;5073341;28;20474;-74
2022/10/03 12:16:45;;;;;;;20.57;18.87;;;;;;;;;;5072709;28;20447;-75
2022/10/03 12:19:19;;;;;;;18.20;17.20;;;;;;;;;;5073162;28;21020;-74
2022/10/03 12:21:54;;;;;;;18.40;17.10;;;;;;;;;;5072659;28;20851;-75
2022/10/03 12:24:26;;;;;;;18.70;17.57;;;;;;;;;;5073622;28;20439;-75
2022/10/03 12:27:03;;;;;;;19.30;17.73;;;;;;;;;;5073596;28;20478;-75
2022/10/03 12:29:33;;;;;;;20.03;18.53;;;;;;;;;;5073254;28;20435;-75
2022/10/03 12:32:04;;;;;;;20.30;18.40;;;;;;;;;;5080873;28;20848;-75
2022/10/03 12:34:40;;;;;;;19.97;18.40;;;;;;;;;;5093543;28;20917;-75
2022/10/03 12:37:17;;;;;;;19.10;17.43;;;;;;;;;;5093282;28;20455;-75
2022/10/03 12:39:48;;;;;;;18.13;16.87;;;;;;;;;;5093659;28;20530;-75
2022/10/03 12:42:26;;;;;;;19.17;17.80;;;;;;;;;;5092394;28;20942;-74
2022/10/03 12:44:58;;;;;;;19.17;17.27;;;;;;;;;;5093568;28;20437;-74
2022/10/03 12:47:33;;;;;;;19.50;17.93;;;;;;;;;;5093426;28;20460;-74
2022/10/03 12:50:12;;;;;;;18.90;17.83;;;;;;;;;;5093334;28;20922;-75
2022/10/03 12:52:50;;;;;;;20.27;18.60;;;;;;;;;;5096138;28;20491;-74
2022/10/03 12:55:32;;;;;;;19.13;17.50;;;;;;;;;;5097489;28;20469;-74
2022/10/03 12:58:03;;;;;;;20.30;18.80;;;;;;;;;;5097177;28;20449;-75
2022/10/03 13:00:54;;;;;;;19.83;17.90;;;;;;;;;;5096017;28;20501;-75
2022/10/03 13:03:25;;;;;;;21.00;19.00;;;;;;;;;;5097104;28;20513;-74
2022/10/03 13:06:13;;;;;;;19.33;17.80;;;;;;;;;;5096932;28;20477;-74
2022/10/03 13:08:55;;;;;;;20.20;18.37;;;;;;;;;;5096931;28;20440;-75
2022/10/03 13:11:31;;;;;;;19.40;18.00;;;;;;;;;;5094192;28;20424;-75
2022/10/03 13:14:16;;;;;;;20.93;19.40;;;;;;;;;;5096626;28;20461;-75
2022/10/03 13:16:50;;;;;;;20.00;18.30;;;;;;;;;;5096580;28;20438;-74
2022/10/03 13:19:20;;;;;;;20.23;18.70;;;;;;;;;;5096745;28;20769;-75
2022/10/03 13:22:05;;;;;;;21.40;19.60;;;;;;;;;;5096010;28;20444;-75
2022/10/03 13:24:41;;;;;;;20.97;19.40;;;;;;;;;;5097186;27;20454;-74
2022/10/03 13:27:25;;;;;;;19.57;18.17;;;;;;;;;;5091614;28;20459;-75
2022/10/03 13:29:55;;;;;;;18.93;18.00;;;;;;;;;;5095335;28;20441;-79
2022/10/03 13:32:29;;;;;;;20.30;18.73;;;;;;;;;;5087194;28;20472;-78
2022/10/03 13:38:01;;;;;;;20.20;18.60;;;;;;;;;;5097176;28;20473;-79
2022/10/03 13:40:33;;;;;;;19.67;18.67;;;;;;;;;;5103688;28;20511;-80
2022/10/03 13:43:12;;;;;;;22.03;20.50;;;;;;;;;;5097265;28;20452;-80
2022/10/03 13:45:44;;;;;;;19.77;18.50;;;;;;;;;;5096658;28;20431;-81
2022/10/03 13:48:14;;;;;;;22.60;20.90;;;;;;;;;;5094658;28;20488;-82
2022/10/03 13:50:46;;;;;;;20.20;18.83;;;;;;;;;;5095924;28;20444;-81
2022/10/03 13:53:22;;;;;;;20.30;19.00;;;;;;;;;;5080922;28;20495;-79
2022/10/03 13:55:55;;;;;;;21.10;19.50;;;;;;;;;;5080460;28;20444;-80
2022/10/03 13:58:34;;;;;;;21.30;19.87;;;;;;;;;;5081020;28;20857;-81
2022/10/03 14:01:12;;;;;;;52.10;41.23;;;;;;;;;;5080046;28;20464;-80
2022/10/03 14:03:44;;;;;;;28.77;26.37;;;;;;;;;;5081554;28;20496;-80
2022/10/03 14:06:17;;;;;;;19.97;18.67;;;;;;;;;;5080278;28;20451;-80
2022/10/03 14:08:56;;;;;;;21.87;19.80;;;;;;;;;;5077187;28;20497;-76
2022/10/03 14:11:33;;;;;;;20.13;18.37;;;;;;;;;;5075196;28;20441;-75
2022/10/03 14:14:15;;;;;;;19.87;17.90;;;;;;;;;;5076195;28;20487;-76
2022/10/03 14:16:44;;;;;;;19.60;18.37;;;;;;;;;;5074871;28;20453;-75
2022/10/03 14:19:17;;;;;;;20.33;18.93;;;;;;;;;;5076838;28;20456;-79
2022/10/03 14:22:06;;;;;;;19.47;18.27;;;;;;;;;;5081127;28;20918;-80
2022/10/03 14:24:39;;;;;;;21.40;19.50;;;;;;;;;;5078370;28;20462;-80
2022/10/03 14:27:30;;;;;;;47.07;42.20;;;;;;;;;;5081723;28;20441;-80
2022/10/03 14:30:08;;;;;;;39.17;35.57;;;;;;;;;;5082176;28;20437;-80
2022/10/03 14:32:48;;;;;;;47.57;43.33;;;;;;;;;;5082389;28;20494;-79
2022/10/03 14:35:33;;;;;;;27.17;25.17;;;;;;;;;;5083404;28;20469;-80
2022/10/03 14:38:08;;;;;;;28.97;26.87;;;;;;;;;;5075064;28;20451;-79
2022/10/03 14:40:38;;;;;;;27.60;25.13;;;;;;;;;;5081973;28;20438;-79
2022/10/03 14:43:23;;;;;;;25.63;24.00;;;;;;;;;;5082557;28;20492;-80
2022/10/03 14:46:03;;;;;;;23.17;21.43;;;;;;;;;;5084141;28;20433;-80
2022/10/03 14:48:44;;;;;;;36.03;32.67;;;;;;;;;;5082522;28;20466;-80
2022/10/03 14:51:17;;;;;;;26.27;24.00;;;;;;;;;;5082595;28;20541;-80
2022/10/03 14:53:48;;;;;;;30.63;27.47;;;;;;;;;;5083143;28;20497;-80
2022/10/03 14:56:23;;;;;;;22.50;21.00;;;;;;;;;;5083296;28;20430;-80
2022/10/03 14:59:12;;;;;;;22.47;20.50;;;;;;;;;;5081992;28;20435;-80
2022/10/03 15:01:48;;;;;;;18.73;17.53;;;;;;;;;;5082092;28;20949;-80
2022/10/03 15:04:23;;;;;;;23.30;21.73;;;;;;;;;;5081199;28;20489;-79
2022/10/03 15:06:55;;;;;;;20.53;19.03;;;;;;;;;;5081578;28;20447;-79
2022/10/03 15:09:32;;;;;;;19.50;18.00;;;;;;;;;;5081923;28;20426;-80
2022/10/03 15:12:11;;;;;;;18.57;17.37;;;;;;;;;;5081569;28;20447;-79
2022/10/03 15:14:55;;;;;;;19.87;18.47;;;;;;;;;;5081328;28;20577;-79
2022/10/03 15:17:37;;;;;;;19.50;18.30;;;;;;;;;;5082471;28;20430;-80
2022/10/03 15:20:08;;;;;;;19.00;17.83;;;;;;;;;;5073824;28;20452;-77
2022/10/03 15:22:47;;;;;;;18.67;17.50;;;;;;;;;;5074865;28;20469;-77
2022/10/03 15:25:17;;;;;;;18.67;17.40;;;;;;;;;;5075931;28;20463;-79
2022/10/03 15:27:46;;;;;;;19.23;17.97;;;;;;;;;;5075505;28;20441;-77
2022/10/03 15:30:27;;;;;;;19.03;17.90;;;;;;;;;;5075112;28;20443;-77
2022/10/03 15:32:58;;;;;;;18.53;17.53;;;;;;;;;;5074306;28;20487;-78
2022/10/03 15:35:31;;;;;;;19.80;18.03;;;;;;;;;;5074891;28;20599;-77
2022/10/03 15:38:09;;;;;;;21.53;19.40;;;;;;;;;;5075425;28;20435;-77